createdAt,value
2023-04-16T00:02:19.755Z,90.21
2023-04-16T00:05:05.697Z,89.97
2023-04-16T00:07:51.979Z,89.65
2023-04-16T00:10:37.102Z,89.80
2023-04-16T00:13:22.759Z,90.04
2023-04-16T00:16:08.373Z,89.12
2023-04-16T00:18:53.776Z,89.21
2023-04-16T00:21:39.239Z,89.13
2023-04-16T00:24:24.499Z,89.74
2023-04-16T00:27:09.787Z,89.40
2023-04-16T00:29:55.064Z,89.20
2023-04-16T00:32:40.498Z,89.04
2023-04-16T00:35:25.895Z,89.91
2023-04-16T00:38:11.244Z,89.22
2023-04-16T00:40:58.855Z,88.90
2023-04-16T00:43:44.082Z,88.83
2023-04-16T00:46:29.477Z,89.08
2023-04-16T00:49:14.978Z,89.40
2023-04-16T00:52:02.468Z,89.28
2023-04-16T00:54:47.778Z,89.16
2023-04-16T00:57:33.090Z,89.32
2023-04-16T01:00:18.319Z,88.77
2023-04-16T01:03:05.526Z,88.59
2023-04-16T01:05:51.315Z,89.80
2023-04-16T01:08:36.353Z,89.87
2023-04-16T01:11:21.667Z,90.08
2023-04-16T01:14:07.224Z,90.47
2023-04-16T01:16:52.408Z,90.95
2023-04-16T01:19:38.538Z,90.27
2023-04-16T01:22:23.687Z,90.94
2023-04-16T01:25:09.112Z,90.29
2023-04-16T01:27:54.948Z,89.60
2023-04-16T01:30:40.033Z,90.12
2023-04-16T01:33:25.528Z,90.31
2023-04-16T01:36:10.786Z,90.49
2023-04-16T01:38:56.297Z,90.05
2023-04-16T01:41:41.546Z,90.33
2023-04-16T01:44:26.511Z,89.60
2023-04-16T01:47:11.852Z,89.48
2023-04-16T01:49:57.194Z,89.09
2023-04-16T01:52:42.124Z,89.44
2023-04-16T01:55:27.287Z,89.71
2023-04-16T01:58:14.800Z,89.81
2023-04-16T02:01:00.461Z,89.12
2023-04-16T02:03:45.760Z,89.24
2023-04-16T02:06:31.666Z,88.94
2023-04-16T02:09:16.629Z,89.38
2023-04-16T02:12:03.453Z,89.61
2023-04-16T02:14:48.591Z,89.99
2023-04-16T02:17:33.837Z,89.90
2023-04-16T02:20:19.505Z,89.14
2023-04-16T02:23:04.404Z,89.61
2023-04-16T02:25:49.798Z,89.13
2023-04-16T02:28:35.085Z,89.47
2023-04-16T02:31:21.857Z,89.64
2023-04-16T02:34:06.960Z,89.46
2023-04-16T02:36:52.224Z,89.35
2023-04-16T02:39:37.551Z,89.33
2023-04-16T02:42:22.809Z,89.42
2023-04-16T02:45:08.941Z,88.67
2023-04-16T02:47:54.141Z,88.65
2023-04-16T02:50:39.324Z,88.71
2023-04-16T02:53:24.720Z,88.82
2023-04-16T02:56:10.002Z,89.54
2023-04-16T02:58:55.103Z,89.52
2023-04-16T03:01:40.477Z,90.01
2023-04-16T03:04:25.870Z,88.95
2023-04-16T03:07:13.003Z,88.59
2023-04-16T03:09:58.087Z,89.42
2023-04-16T03:12:43.304Z,89.22
2023-04-16T03:15:29.062Z,89.79
2023-04-16T03:18:14.503Z,89.79
2023-04-16T03:21:00.023Z,89.84
2023-04-16T03:23:45.075Z,90.04
2023-04-16T03:26:30.657Z,89.92
2023-04-16T03:29:15.767Z,89.80
2023-04-16T03:32:00.973Z,90.26
2023-04-16T03:34:46.498Z,89.74
2023-04-16T03:37:31.488Z,90.47
2023-04-16T03:40:16.848Z,90.74
2023-04-16T03:43:02.209Z,91.01
2023-04-16T03:45:47.631Z,91.36
2023-04-16T03:48:32.823Z,91.73
2023-04-16T03:51:17.736Z,92.42
2023-04-16T03:54:02.999Z,92.16
2023-04-16T03:56:48.271Z,92.65
2023-04-16T03:59:33.567Z,92.95
2023-04-16T04:02:19.144Z,93.37
2023-04-16T04:05:05.116Z,93.49
2023-04-16T04:07:50.721Z,93.63
2023-04-16T04:10:36.289Z,92.83
2023-04-16T04:13:21.660Z,93.21
2023-04-16T04:16:07.323Z,93.34
2023-04-16T04:18:52.800Z,93.37
2023-04-16T04:21:38.851Z,93.22
2023-04-16T04:24:24.242Z,93.71
2023-04-16T04:27:09.472Z,93.87
2023-04-16T04:29:54.675Z,94.25
2023-04-16T04:32:40.052Z,94.63
2023-04-16T04:35:25.254Z,94.24
2023-04-16T04:38:10.468Z,94.33
2023-04-16T04:40:56.069Z,95.11
2023-04-16T04:43:41.252Z,95.43
2023-04-16T04:46:26.409Z,95.39
2023-04-16T04:49:12.029Z,95.34
2023-04-16T04:51:57.394Z,96.04
2023-04-16T04:54:42.782Z,96.14
2023-04-16T04:57:28.014Z,95.83
2023-04-16T05:00:13.384Z,96.82
2023-04-16T05:03:02.423Z,97.02
2023-04-16T05:05:47.902Z,97.60
2023-04-16T05:08:33.199Z,97.24
2023-04-16T05:11:18.361Z,97.01
2023-04-16T05:14:03.658Z,96.75
2023-04-16T05:16:49.105Z,96.62
2023-04-16T05:19:35.717Z,96.68
2023-04-16T05:22:21.068Z,97.14
2023-04-16T05:25:06.631Z,97.01
2023-04-16T05:27:51.954Z,97.61
2023-04-16T05:30:37.375Z,97.66
2023-04-16T05:33:22.615Z,98.10
2023-04-16T05:36:07.969Z,99.01
2023-04-16T05:38:53.108Z,99.51
2023-04-16T05:41:38.418Z,99.41
2023-04-16T05:44:23.748Z,99.85
2023-04-16T05:47:09.601Z,100.00
2023-04-16T05:49:54.794Z,100.00
2023-04-16T05:52:39.953Z,100.00
2023-04-16T05:55:25.365Z,100.00
2023-04-16T05:58:10.590Z,100.00
2023-04-16T06:00:55.975Z,100.00
2023-04-16T06:03:41.444Z,100.00
2023-04-16T06:06:27.491Z,100.00
2023-04-16T06:09:12.666Z,100.00
2023-04-16T06:11:58.046Z,100.00
2023-04-16T06:14:43.289Z,100.00
2023-04-16T06:17:28.566Z,100.00
2023-04-16T06:20:13.902Z,100.00
2023-04-16T06:22:59.363Z,100.00
2023-04-16T06:25:44.656Z,100.00
2023-04-16T06:28:29.949Z,100.00
2023-04-16T06:31:15.530Z,100.00
2023-04-16T06:34:00.537Z,100.00
2023-04-16T06:36:46.167Z,100.00
2023-04-16T06:39:31.191Z,100.00
2023-04-16T06:42:16.640Z,100.00
2023-04-16T06:45:01.944Z,100.00
2023-04-16T06:47:48.156Z,100.00
2023-04-16T06:50:34.190Z,100.00
2023-04-16T06:53:19.394Z,100.00
2023-04-16T06:56:05.073Z,100.00
2023-04-16T06:58:50.765Z,100.00
2023-04-16T07:01:36.636Z,100.00
2023-04-16T07:04:22.071Z,100.00
2023-04-16T07:07:07.279Z,100.00
2023-04-16T07:09:52.627Z,100.00
2023-04-16T07:12:38.073Z,100.00
2023-04-16T07:15:23.308Z,100.00
2023-04-16T07:18:08.743Z,100.00
2023-04-16T07:20:54.061Z,100.00
2023-04-16T07:23:39.315Z,100.00
2023-04-16T07:26:24.517Z,100.00
2023-04-16T07:29:10.155Z,100.00
2023-04-16T07:31:55.733Z,100.00
2023-04-16T07:34:41.037Z,100.00
2023-04-16T07:37:26.427Z,100.00
2023-04-16T07:40:12.079Z,100.00
2023-04-16T07:42:57.588Z,100.00
2023-04-16T07:45:42.617Z,100.00
2023-04-16T07:48:28.040Z,100.00
2023-04-16T07:51:13.931Z,100.00
2023-04-16T07:53:59.221Z,100.00
2023-04-16T07:56:44.541Z,100.00
2023-04-16T07:59:30.076Z,100.00
2023-04-16T08:02:19.677Z,100.00
2023-04-16T08:05:05.787Z,100.00
2023-04-16T08:07:50.834Z,98.19
2023-04-16T08:10:36.317Z,98.28
2023-04-16T08:13:25.168Z,96.80
2023-04-16T08:16:10.238Z,96.30
2023-04-16T08:18:55.536Z,96.12
2023-04-16T08:21:41.093Z,94.90
2023-04-16T08:24:26.603Z,92.58
2023-04-16T08:27:18.404Z,91.21
2023-04-16T08:30:06.097Z,88.53
2023-04-16T08:32:51.591Z,87.79
2023-04-16T08:35:37.058Z,84.96
2023-04-16T08:38:22.409Z,84.65
2023-04-16T08:41:12.359Z,84.37
2023-04-16T08:44:01.157Z,84.11
2023-04-16T08:46:47.680Z,84.21
2023-04-16T08:49:36.909Z,83.62
2023-04-16T08:52:24.223Z,83.74
2023-04-16T08:55:16.863Z,82.68
2023-04-16T08:58:08.323Z,82.97
2023-04-16T09:00:54.634Z,83.25
2023-04-16T09:03:41.453Z,82.01
2023-04-16T09:06:27.760Z,82.01
2023-04-16T09:09:14.296Z,81.54
2023-04-16T09:12:00.067Z,81.13
2023-04-16T09:14:49.870Z,82.32
2023-04-16T09:17:35.580Z,82.82
2023-04-16T09:20:21.207Z,81.41
2023-04-16T09:23:06.621Z,79.62
2023-04-16T09:25:51.889Z,79.01
2023-04-16T09:28:41.042Z,80.49
2023-04-16T09:31:25.914Z,78.93
2023-04-16T09:34:11.307Z,77.82
2023-04-16T09:36:56.731Z,78.03
2023-04-16T09:39:43.246Z,76.80
2023-04-16T09:42:36.517Z,74.65
2023-04-16T09:45:21.670Z,76.03
2023-04-16T09:48:07.018Z,75.28
2023-04-16T09:50:52.318Z,73.48
2023-04-16T09:53:37.755Z,72.34
2023-04-16T09:56:26.295Z,72.18
2023-04-16T09:59:18.908Z,72.91
2023-04-16T10:02:14.774Z,73.19
2023-04-16T10:05:03.199Z,72.24
2023-04-16T10:07:49.540Z,72.32
2023-04-16T10:10:35.125Z,71.45
2023-04-16T10:13:20.512Z,72.98
2023-04-16T10:16:06.954Z,73.25
2023-04-16T10:18:53.281Z,73.69
2023-04-16T10:21:38.398Z,72.13
2023-04-16T10:24:25.032Z,71.49
2023-04-16T10:27:10.769Z,71.94
2023-04-16T10:29:56.718Z,71.12
2023-04-16T10:32:42.484Z,71.14
2023-04-16T10:35:27.739Z,71.05
2023-04-16T10:38:28.788Z,69.14
2023-04-16T10:41:14.152Z,70.03
2023-04-16T10:44:11.601Z,69.71
2023-04-16T10:46:57.230Z,68.96
2023-04-16T10:49:44.109Z,68.22
2023-04-16T10:52:29.485Z,67.80
2023-04-16T10:55:17.764Z,67.49
2023-04-16T10:58:03.094Z,67.25
2023-04-16T11:00:52.093Z,67.86
2023-04-16T11:03:37.390Z,66.10
2023-04-16T11:06:26.973Z,67.05
2023-04-16T11:09:43.992Z,64.28
2023-04-16T11:12:29.206Z,63.92
2023-04-16T11:15:16.235Z,64.48
2023-04-16T11:18:04.037Z,63.53
2023-04-16T11:20:51.376Z,62.27
2023-04-16T11:23:50.252Z,63.06
2023-04-16T11:26:35.366Z,63.93
2023-04-16T11:29:20.671Z,63.96
2023-04-16T11:32:06.282Z,61.98
2023-04-16T11:34:51.379Z,61.48
2023-04-16T11:37:38.132Z,61.00
2023-04-16T11:40:23.435Z,60.63
2023-04-16T11:43:16.385Z,60.72
2023-04-16T11:46:20.104Z,60.63
2023-04-16T11:49:09.865Z,61.20
2023-04-16T11:51:56.431Z,61.16
2023-04-16T11:54:41.635Z,62.12
2023-04-16T11:57:31.921Z,62.68
2023-04-16T12:00:17.418Z,62.71
2023-04-16T12:03:03.108Z,63.09
2023-04-16T12:05:48.203Z,62.93
2023-04-16T12:08:33.598Z,63.44
2023-04-16T12:11:18.737Z,62.98
2023-04-16T12:14:08.789Z,63.01
2023-04-16T12:16:54.130Z,62.75
2023-04-16T12:19:49.169Z,62.74
2023-04-16T12:22:37.219Z,64.26
2023-04-16T12:25:24.618Z,63.32
2023-04-16T12:28:10.005Z,61.00
2023-04-16T12:30:55.369Z,60.76
2023-04-16T12:33:40.844Z,61.91
2023-04-16T12:36:26.235Z,59.96
2023-04-16T12:39:12.303Z,59.58
2023-04-16T12:41:57.636Z,59.05
2023-04-16T12:44:42.788Z,58.49
2023-04-16T12:47:28.145Z,57.33
2023-04-16T12:50:13.472Z,57.04
2023-04-16T12:52:59.293Z,59.37
2023-04-16T12:55:45.526Z,58.26
2023-04-16T12:58:31.077Z,56.58
2023-04-16T13:01:16.383Z,54.70
2023-04-16T13:04:01.821Z,55.82
2023-04-16T13:06:47.256Z,55.06
2023-04-16T13:09:32.527Z,54.43
2023-04-16T13:12:17.924Z,53.19
2023-04-16T13:15:03.342Z,53.79
2023-04-16T13:17:48.778Z,52.70
2023-04-16T13:20:34.025Z,54.54
2023-04-16T13:23:19.444Z,53.93
2023-04-16T13:26:04.709Z,52.96
2023-04-16T13:28:50.060Z,53.04
2023-04-16T13:31:35.670Z,53.69
2023-04-16T13:34:20.925Z,52.31
2023-04-16T13:37:06.391Z,51.46
2023-04-16T13:39:51.346Z,51.06
2023-04-16T13:42:36.759Z,51.70
2023-04-16T13:45:22.177Z,50.08
2023-04-16T13:48:07.460Z,50.26
2023-04-16T13:50:52.677Z,49.38
2023-04-16T13:53:37.928Z,51.36
2023-04-16T13:56:23.290Z,50.84
2023-04-16T13:59:08.775Z,50.61
2023-04-16T14:01:54.627Z,49.96
2023-04-16T14:04:39.751Z,51.20
2023-04-16T14:07:27.249Z,49.17
2023-04-16T14:10:12.558Z,49.64
2023-04-16T14:12:58.072Z,49.12
2023-04-16T14:15:43.276Z,50.20
2023-04-16T14:18:28.347Z,50.46
2023-04-16T14:21:13.633Z,50.28
2023-04-16T14:23:59.013Z,49.47
2023-04-16T14:26:44.480Z,50.74
2023-04-16T14:29:30.748Z,50.77
2023-04-16T14:32:15.779Z,49.95
2023-04-16T14:35:00.960Z,49.14
2023-04-16T14:37:46.851Z,50.00
2023-04-16T14:40:32.175Z,50.02
2023-04-16T14:43:17.496Z,49.80
2023-04-16T14:46:05.014Z,49.80
2023-04-16T14:48:50.313Z,50.43
2023-04-16T14:51:35.718Z,50.09
2023-04-16T14:54:21.202Z,50.13
2023-04-16T14:57:06.391Z,50.12
2023-04-16T14:59:51.790Z,50.22
2023-04-16T15:02:37.597Z,49.58
2023-04-16T15:05:22.997Z,50.10
2023-04-16T15:08:08.111Z,50.84
2023-04-16T15:10:53.978Z,50.75
2023-04-16T15:13:39.380Z,51.49
2023-04-16T15:16:24.774Z,51.81
2023-04-16T15:19:10.615Z,51.70
2023-04-16T15:21:56.150Z,52.05
2023-04-16T15:24:41.687Z,52.24
2023-04-16T15:27:27.026Z,52.94
2023-04-16T15:30:13.186Z,52.90
2023-04-16T15:32:58.723Z,52.15
2023-04-16T15:35:44.097Z,51.92
2023-04-16T15:38:30.720Z,52.78
2023-04-16T15:41:15.872Z,52.57
2023-04-16T15:44:01.190Z,53.01
2023-04-16T15:46:46.972Z,53.20
2023-04-16T15:49:32.334Z,53.32
2023-04-16T15:52:19.940Z,53.18
2023-04-16T15:55:05.651Z,53.30
2023-04-16T15:57:51.565Z,54.28
2023-04-16T16:00:36.988Z,54.63
2023-04-16T16:03:22.518Z,54.43
2023-04-16T16:06:08.940Z,54.94
2023-04-16T16:08:54.585Z,55.10
2023-04-16T16:11:39.580Z,55.13
2023-04-16T16:14:24.883Z,55.66
2023-04-16T16:17:10.217Z,55.33
2023-04-16T16:19:57.563Z,56.28
2023-04-16T16:22:45.282Z,56.83
2023-04-16T16:25:30.413Z,57.02
2023-04-16T16:28:15.641Z,57.24
2023-04-16T16:31:01.540Z,57.18
2023-04-16T16:33:47.070Z,57.17
2023-04-16T16:36:36.605Z,57.50
2023-04-16T16:39:24.479Z,58.10
2023-04-16T16:42:09.739Z,58.14
2023-04-16T16:44:57.323Z,57.93
2023-04-16T16:47:42.809Z,57.80
2023-04-16T16:50:27.886Z,57.72
2023-04-16T16:53:13.222Z,57.74
2023-04-16T16:55:58.454Z,57.66
2023-04-16T16:58:43.711Z,58.02
2023-04-16T17:01:29.879Z,58.34
2023-04-16T17:07:01.100Z,59.07
2023-04-16T17:09:46.251Z,59.64
2023-04-16T17:12:31.464Z,59.96
2023-04-16T17:15:19.128Z,60.16
2023-04-16T17:18:06.191Z,60.78
2023-04-16T17:20:51.773Z,60.74
2023-04-16T17:23:37.197Z,61.57
2023-04-16T17:26:23.070Z,62.61
2023-04-16T17:29:08.019Z,64.22
2023-04-16T17:31:53.884Z,65.36
2023-04-16T17:34:39.219Z,65.58
2023-04-16T17:37:24.874Z,66.03
2023-04-16T17:40:10.302Z,66.02
2023-04-16T17:42:55.437Z,66.16
2023-04-16T17:45:40.456Z,66.29
2023-04-16T17:48:25.723Z,67.09
2023-04-16T17:51:12.159Z,66.93
2023-04-16T17:53:57.496Z,66.90
2023-04-16T17:56:42.826Z,68.09
2023-04-16T17:59:28.150Z,68.38
2023-04-16T18:02:13.655Z,69.33
2023-04-16T18:04:58.985Z,69.48
2023-04-16T18:07:44.203Z,69.81
2023-04-16T18:10:31.581Z,69.58
2023-04-16T18:13:16.951Z,69.57
2023-04-16T18:16:02.863Z,69.86
2023-04-16T18:18:48.271Z,70.00
2023-04-16T18:21:35.434Z,70.52
2023-04-16T18:24:20.653Z,71.01
2023-04-16T18:27:05.874Z,71.23
2023-04-16T18:29:54.588Z,71.89
2023-04-16T18:32:55.942Z,71.90
2023-04-16T18:35:46.327Z,72.51
2023-04-16T18:38:31.490Z,72.84
2023-04-16T18:41:18.230Z,72.69
2023-04-16T18:44:03.742Z,73.08
2023-04-16T18:46:48.725Z,73.82
2023-04-16T18:49:34.107Z,74.25
2023-04-16T18:52:19.330Z,74.32
2023-04-16T18:55:05.248Z,74.34
2023-04-16T18:57:50.747Z,74.50
2023-04-16T19:00:36.187Z,74.16
2023-04-16T19:03:21.873Z,74.33
2023-04-16T19:06:07.718Z,75.70
2023-04-16T19:08:52.832Z,75.58
2023-04-16T19:11:38.249Z,75.63
2023-04-16T19:14:23.749Z,75.47
2023-04-16T19:17:09.121Z,75.80
2023-04-16T19:19:54.382Z,76.11
2023-04-16T19:22:39.901Z,76.37
2023-04-16T19:25:24.973Z,76.35
2023-04-16T19:28:10.296Z,76.79
2023-04-16T19:30:55.978Z,76.92
2023-04-16T19:33:41.665Z,77.17
2023-04-16T19:36:27.220Z,77.11
2023-04-16T19:39:12.687Z,77.08
2023-04-16T19:41:57.856Z,77.16
2023-04-16T19:44:43.139Z,77.06
2023-04-16T19:47:28.417Z,77.11
2023-04-16T19:50:13.973Z,77.31
2023-04-16T19:52:59.000Z,77.65
2023-04-16T19:55:44.335Z,77.41
2023-04-16T19:58:29.747Z,77.72
2023-04-16T20:01:15.010Z,77.74
2023-04-16T20:04:01.036Z,77.90
2023-04-16T20:06:46.501Z,78.33
2023-04-16T20:09:31.751Z,78.11
2023-04-16T20:12:18.070Z,78.31
2023-04-16T20:15:04.453Z,78.12
2023-04-16T20:17:50.006Z,78.30
2023-04-16T20:20:37.894Z,78.19
2023-04-16T20:23:23.068Z,78.14
2023-04-16T20:26:08.330Z,78.16
2023-04-16T20:28:53.784Z,79.13
2023-04-16T20:31:38.846Z,79.52
2023-04-16T20:34:24.088Z,79.48
2023-04-16T20:37:09.692Z,79.47
2023-04-16T20:39:56.101Z,79.29
2023-04-16T20:42:41.365Z,79.03
2023-04-16T20:45:38.162Z,79.29
2023-04-16T20:48:23.628Z,78.90
2023-04-16T20:51:12.260Z,79.61
2023-04-16T20:53:57.419Z,79.79
2023-04-16T20:56:43.345Z,80.69
2023-04-16T20:59:28.667Z,81.13
2023-04-16T21:02:14.055Z,80.54
2023-04-16T21:04:59.151Z,80.21
2023-04-16T21:07:44.412Z,81.27
2023-04-16T21:10:29.801Z,81.22
2023-04-16T21:13:15.380Z,81.41
2023-04-16T21:16:00.523Z,81.17
2023-04-16T21:18:45.906Z,81.17
2023-04-16T21:21:32.109Z,80.70
2023-04-16T21:24:17.555Z,81.41
2023-04-16T21:27:03.332Z,81.77
2023-04-16T21:29:48.526Z,81.74
2023-04-16T21:32:33.920Z,81.63
2023-04-16T21:35:19.472Z,81.23
2023-04-16T21:38:04.517Z,81.72
2023-04-16T21:40:53.756Z,81.59
2023-04-16T21:43:38.706Z,81.65
2023-04-16T21:46:25.438Z,81.41
2023-04-16T21:49:11.145Z,81.90
2023-04-16T21:51:59.248Z,81.77
2023-04-16T21:54:45.425Z,82.15
2023-04-16T21:57:30.520Z,81.49
2023-04-16T22:00:16.049Z,81.78
2023-04-16T22:03:01.376Z,81.99
2023-04-16T22:05:46.542Z,81.61
2023-04-16T22:08:32.240Z,81.71
2023-04-16T22:11:17.361Z,82.36
2023-04-16T22:14:03.074Z,82.53
2023-04-16T22:16:49.894Z,82.47
2023-04-16T22:19:37.325Z,82.71
2023-04-16T22:22:22.547Z,82.74
2023-04-16T22:25:08.262Z,82.75
2023-04-16T22:27:53.164Z,82.72
2023-04-16T22:30:38.427Z,82.59
2023-04-16T22:33:23.664Z,83.61
2023-04-16T22:36:09.114Z,83.39
2023-04-16T22:38:54.058Z,84.00
2023-04-16T22:41:39.539Z,83.88
2023-04-16T22:44:24.991Z,84.19
2023-04-16T22:47:10.301Z,84.93
2023-04-16T22:49:55.725Z,85.20
2023-04-16T22:52:41.575Z,85.31
2023-04-16T22:55:26.972Z,85.97
2023-04-16T22:58:12.477Z,85.47
2023-04-16T23:00:59.541Z,85.27
2023-04-16T23:03:44.804Z,85.44
2023-04-16T23:06:30.048Z,85.89
2023-04-16T23:09:15.581Z,84.88
2023-04-16T23:12:01.973Z,84.88
2023-04-16T23:14:48.129Z,84.77
2023-04-16T23:17:33.867Z,84.80
2023-04-16T23:20:19.063Z,84.77
2023-04-16T23:23:04.550Z,84.46
2023-04-16T23:25:53.264Z,84.90
2023-04-16T23:28:38.540Z,84.65
2023-04-16T23:31:23.889Z,84.28
2023-04-16T23:34:09.330Z,85.11
2023-04-16T23:36:54.707Z,84.84
2023-04-16T23:39:40.029Z,85.56
2023-04-16T23:42:25.389Z,85.33
2023-04-16T23:45:11.177Z,85.33
2023-04-16T23:47:56.303Z,85.07
2023-04-16T23:50:41.588Z,85.72
2023-04-16T23:53:27.141Z,86.71
2023-04-16T23:56:13.282Z,86.57
2023-04-16T23:58:58.393Z,86.71
